Time,TemperatureF,DewpointF,PressureIn,WindDirection,WindDirectionDegrees,WindSpeedMPH,WindSpeedGustMPH,Humidity,HourlyPrecipIn,Conditions,Clouds,dailyrainin,SoftwareType,DateUTC
2013-08-16 00:13:00,57.0,55.0,30.13,SW,233,0.0,0.0,94,0.03,,,-99.99,,2013-08-16 04:13:00,
2013-08-16 00:23:00,56.0,54.0,30.13,SW,233,0.0,0.0,94,0.03,,,-99.99,,2013-08-16 04:23:00,
2013-08-16 00:42:00,56.0,55.0,30.13,SW,233,0.0,0.0,96,0.03,,,-99.99,,2013-08-16 04:42:00,
2013-08-16 00:53:00,55.0,54.0,30.13,SW,233,0.0,0.0,96,0.03,,,-99.99,,2013-08-16 04:53:00,
2013-08-16 01:12:00,54.0,53.0,30.13,SW,233,0.0,0.0,98,0.03,,,-99.99,,2013-08-16 05:12:00,
2013-08-16 01:22:00,54.0,53.0,30.13,SW,233,0.0,0.0,98,0.03,,,-99.99,,2013-08-16 05:22:00,
2013-08-16 01:42:00,53.0,53.0,30.14,SW,233,0.0,0.0,99,0.03,,,-99.99,,2013-08-16 05:42:00,
2013-08-16 03:00:00,52.0,52.0,30.14,SW,233,0.0,0.0,100,0.03,,,-99.99,,2013-08-16 07:00:00,
2013-08-16 03:11:00,51.0,51.0,30.14,SW,233,0.0,0.0,100,0.03,,,-99.99,,2013-08-16 07:11:00,
2013-08-16 03:21:00,51.0,51.0,30.14,SW,233,0.0,0.0,100,0.03,,,-99.99,,2013-08-16 07:21:00,
2013-08-16 03:42:00,51.0,51.0,30.14,SW,233,0.0,0.0,100,0.03,,,-99.99,,2013-08-16 07:42:00,
2013-08-16 03:52:00,51.0,51.0,30.14,SW,233,0.0,0.0,100,0.03,,,-99.99,,2013-08-16 07:52:00,
2013-08-16 04:11:00,50.0,50.0,30.14,SW,233,0.0,0.0,100,0.03,,,-99.99,,2013-08-16 08:11:00,
2013-08-16 04:21:00,50.0,50.0,30.14,SW,233,0.0,0.0,100,0.03,,,-99.99,,2013-08-16 08:21:00,
2013-08-16 04:42:00,50.0,50.0,30.14,SW,233,0.0,0.0,100,0.03,,,-99.99,,2013-08-16 08:42:00,
2013-08-16 04:52:00,49.0,49.0,30.14,SW,233,0.0,0.0,100,0.03,,,-99.99,,2013-08-16 08:52:00,
2013-08-16 05:11:00,49.0,49.0,30.14,SW,233,0.0,0.0,100,0.03,,,-99.99,,2013-08-16 09:11:00,
2013-08-16 05:22:00,49.0,49.0,30.14,SW,233,0.0,0.0,100,0.03,,,-99.99,,2013-08-16 09:22:00,
2013-08-16 05:42:00,49.0,49.0,30.14,SW,233,0.0,0.0,100,0.03,,,-99.99,,2013-08-16 09:42:00,
2013-08-16 05:53:00,48.0,48.0,30.14,SW,233,0.0,0.0,100,0.03,,,-99.99,,2013-08-16 09:53:00,
2013-08-16 06:13:00,48.0,48.0,30.14,SW,233,0.0,0.0,100,0.03,,,-99.99,,2013-08-16 10:13:00,
2013-08-16 06:23:00,48.0,48.0,30.14,SW,233,0.0,0.0,100,0.03,,,-99.99,,2013-08-16 10:23:00,
2013-08-16 06:42:00,48.0,48.0,30.14,SW,233,0.0,0.0,100,0.03,,,-99.99,,2013-08-16 10:42:00,
2013-08-16 06:52:00,47.0,47.0,30.15,SW,233,0.0,0.0,100,0.03,,,-99.99,,2013-08-16 10:52:00,
2013-08-16 07:02:00,47.0,47.0,30.15,SW,233,0.0,0.0,100,0.03,,,-99.99,,2013-08-16 11:02:00,
2013-08-16 07:12:00,47.0,47.0,30.15,SW,233,0.0,0.0,100,0.03,,,-99.99,,2013-08-16 11:12:00,
2013-08-16 07:22:00,48.0,48.0,30.16,SW,233,0.0,0.0,100,0.03,,,-99.99,,2013-08-16 11:22:00,
2013-08-16 07:42:00,48.0,48.0,30.16,SW,233,0.0,0.0,100,0.03,,,-99.99,,2013-08-16 11:42:00,
2013-08-16 07:52:00,48.0,48.0,30.16,SW,233,0.0,0.0,100,0.03,,,-99.99,,2013-08-16 11:52:00,
2013-08-16 08:12:00,49.0,49.0,30.16,SW,233,0.0,0.0,100,0.03,,,-99.99,,2013-08-16 12:12:00,
2013-08-16 08:21:00,50.0,50.0,30.17,SW,233,0.0,0.0,100,0.03,,,-99.99,,2013-08-16 12:21:00,
2013-08-16 08:42:00,53.0,53.0,30.17,SW,233,0.0,0.0,100,0.03,,,-99.99,,2013-08-16 12:42:00,
2013-08-16 08:52:00,55.0,55.0,30.18,SW,233,0.0,0.0,100,0.03,,,-99.99,,2013-08-16 12:52:00,
2013-08-16 09:11:00,56.0,56.0,30.18,SW,233,0.0,0.0,100,0.03,,,-99.99,,2013-08-16 13:11:00,
2013-08-16 09:22:00,57.0,57.0,30.18,SW,233,0.0,0.0,100,0.03,,,-99.99,,2013-08-16 13:22:00,
2013-08-16 09:32:00,57.0,57.0,30.18,SW,233,0.0,0.0,100,0.03,,,-99.99,,2013-08-16 13:32:00,
2013-08-16 09:42:00,57.0,57.0,30.18,SW,233,0.0,0.0,100,0.03,,,-99.99,,2013-08-16 13:42:00,
2013-08-16 09:53:00,61.0,61.0,30.18,South,183,2.0,0.0,100,0.03,,,-99.99,,2013-08-16 13:53:00,
2013-08-16 10:11:00,63.0,63.0,30.18,SSE,163,3.0,0.0,100,0.03,,,-99.99,,2013-08-16 14:11:00,
2013-08-16 10:22:00,64.0,63.0,30.19,South,187,5.0,0.0,98,0.03,,,-99.99,,2013-08-16 14:22:00,
2013-08-16 10:42:00,66.0,64.0,30.18,South,184,4.0,0.0,93,0.03,,,-99.99,,2013-08-16 14:42:00,
2013-08-16 10:52:00,68.0,63.0,30.19,ESE,107,2.0,0.0,85,0.03,,,-99.99,,2013-08-16 14:52:00,
2013-08-16 11:12:00,69.0,63.0,30.19,NNE,18,3.0,0.0,81,0.03,,,-99.99,,2013-08-16 15:12:00,
2013-08-16 11:22:00,70.0,63.0,30.18,ESE,111,4.0,0.0,78,0.03,,,-99.99,,2013-08-16 15:22:00,
2013-08-16 11:43:00,71.0,63.0,30.19,SSE,167,2.0,0.0,75,0.03,,,-99.99,,2013-08-16 15:43:00,
2013-08-16 11:56:00,71.0,63.0,30.19,SSE,167,2.0,0.0,75,0.03,,,-99.99,,2013-08-16 15:56:00,
2013-08-16 12:13:00,73.0,59.0,30.19,South,174,5.0,0.0,61,0.03,,,-99.99,,2013-08-16 16:13:00,
2013-08-16 12:23:00,73.0,59.0,30.19,South,174,5.0,0.0,61,0.03,,,-99.99,,2013-08-16 16:23:00,
2013-08-16 12:43:00,74.0,56.0,30.19,South,179,8.0,0.0,54,0.03,,,-99.99,,2013-08-16 16:43:00,
2013-08-16 12:57:00,74.0,55.0,30.19,North,354,6.0,0.0,52,0.03,,,-99.99,,2013-08-16 16:57:00,
2013-08-16 13:13:00,73.0,55.0,30.19,North,6,7.0,0.0,53,0.03,,,-99.99,,2013-08-16 17:13:00,
2013-08-16 13:22:00,75.0,54.0,30.18,South,186,5.0,0.0,48,0.03,,,-99.99,,2013-08-16 17:22:00,
2013-08-16 13:28:00,73.0,55.0,30.19,North,6,7.0,0.0,53,0.03,,,-99.99,,2013-08-16 17:28:00,
2013-08-16 13:34:00,73.0,55.0,30.19,North,6,7.0,0.0,53,0.03,,,-99.99,,2013-08-16 17:34:00,
2013-08-16 14:00:00,75.0,54.0,30.18,South,186,5.0,0.0,48,0.03,,,-99.99,,2013-08-16 18:00:00,
2013-08-16 14:06:00,75.0,54.0,30.18,South,186,5.0,0.0,48,0.03,,,-99.99,,2013-08-16 18:06:00,
2013-08-16 14:15:00,75.0,54.0,30.18,South,186,5.0,0.0,48,0.03,,,-99.99,,2013-08-16 18:15:00,
2013-08-16 16:23:00,77.0,52.0,30.17,NNW,329,6.0,0.0,42,0.03,,,-99.99,,2013-08-16 20:23:00,
2013-08-16 16:44:00,77.0,51.0,30.17,North,11,7.0,0.0,40,0.03,,,-99.99,,2013-08-16 20:44:00,
2013-08-16 16:52:00,77.0,52.0,30.16,North,10,5.0,0.0,42,0.03,,,-99.99,,2013-08-16 20:52:00,
2013-08-16 17:11:00,79.0,52.0,30.16,SSW,204,10.0,0.0,39,0.03,,,-99.99,,2013-08-16 21:11:00,
2013-08-16 17:25:00,78.0,51.0,30.16,NE,41,5.0,0.0,39,0.03,,,-99.99,,2013-08-16 21:25:00,
2013-08-16 17:40:00,-999.0,-99.9,30.16,ENE,62,5.0,0.0,-999,0.03,,,-99.99,,2013-08-16 21:40:00,
2013-08-16 17:53:00,78.0,52.0,30.16,NNE,28,5.0,0.0,40,0.03,,,-99.99,,2013-08-16 21:53:00,
2013-08-16 18:13:00,78.0,51.0,30.17,SE,135,3.0,0.0,39,0.03,,,-99.99,,2013-08-16 22:13:00,
2013-08-16 18:24:00,78.0,51.0,30.16,NE,38,8.0,0.0,39,0.03,,,-99.99,,2013-08-16 22:24:00,
2013-08-16 18:43:00,78.0,51.0,30.16,NNE,27,4.0,0.0,39,0.03,,,-99.99,,2013-08-16 22:43:00,
2013-08-16 18:52:00,78.0,52.0,30.17,NE,56,5.0,0.0,40,0.03,,,-99.99,,2013-08-16 22:52:00,
2013-08-16 19:09:00,78.0,52.0,30.17,NE,56,5.0,0.0,40,0.03,,,-99.99,,2013-08-16 23:09:00,
2013-08-16 19:23:00,77.0,54.0,30.17,West,262,3.0,0.0,45,0.03,,,-99.99,,2013-08-16 23:23:00,
2013-08-16 19:42:00,76.0,59.0,30.17,South,183,2.0,0.0,56,0.03,,,-99.99,,2013-08-16 23:42:00,
2013-08-16 19:52:00,76.0,60.0,30.17,West,280,4.0,0.0,58,0.03,,,-99.99,,2013-08-16 23:52:00,
2013-08-16 20:12:00,75.0,61.0,30.17,SSW,212,3.0,0.0,61,0.03,,,-99.99,,2013-08-17 00:12:00,
2013-08-16 20:21:00,75.0,61.0,30.17,SSW,212,3.0,0.0,61,0.03,,,-99.99,,2013-08-17 00:21:00,
2013-08-16 20:42:00,72.0,61.0,30.18,West,276,4.0,0.0,68,0.03,,,-99.99,,2013-08-17 00:42:00,
2013-08-16 20:52:00,71.0,62.0,30.18,WNW,294,3.0,0.0,72,0.03,,,-99.99,,2013-08-17 00:52:00,
2013-08-16 21:11:00,71.0,62.0,30.18,WNW,301,1.0,0.0,73,0.03,,,-99.99,,2013-08-17 01:11:00,
2013-08-16 21:21:00,69.0,61.0,30.18,SW,233,0.0,0.0,77,0.03,,,-99.99,,2013-08-17 01:21:00,
2013-08-16 21:42:00,68.0,62.0,30.19,SW,233,0.0,0.0,82,0.03,,,-99.99,,2013-08-17 01:42:00,
2013-08-16 21:52:00,67.0,63.0,30.19,SW,233,0.0,0.0,87,0.03,,,-99.99,,2013-08-17 01:52:00,
2013-08-16 22:11:00,67.0,64.0,30.20,SW,233,0.0,0.0,89,0.03,,,-99.99,,2013-08-17 02:11:00,
2013-08-16 22:21:00,66.0,63.0,30.20,SW,233,0.0,0.0,91,0.03,,,-99.99,,2013-08-17 02:21:00,
2013-08-16 22:42:00,66.0,64.0,30.20,SW,233,0.0,0.0,92,0.03,,,-99.99,,2013-08-17 02:42:00,
2013-08-16 22:52:00,65.0,63.0,30.21,SW,233,0.0,0.0,93,0.03,,,-99.99,,2013-08-17 02:52:00,
2013-08-16 23:11:00,64.0,62.0,30.21,SW,233,0.0,0.0,94,0.03,,,-99.99,,2013-08-17 03:11:00,
2013-08-16 23:22:00,63.0,62.0,30.21,SW,233,0.0,0.0,96,0.03,,,-99.99,,2013-08-17 03:22:00,
2013-08-16 23:43:00,63.0,62.0,30.21,SW,233,0.0,0.0,97,0.03,,,-99.99,,2013-08-17 03:43:00,
2013-08-16 23:53:00,61.0,60.0,30.21,SW,233,0.0,0.0,98,0.03,,,-99.99,,2013-08-17 03:53:00,